sensor_id;sensor_type;location;lat;lon;timestamp;P1;durP1;ratioP1;P2;durP2;ratioP2
24090;SDS011;12272;52.426;17.100;2024-02-23T00:03:21;8.33;;;6.07;;
24090;SDS011;12272;52.426;17.100;2024-02-23T00:08:24;7.63;;;5.30;;
24090;SDS011;12272;52.426;17.100;2024-02-23T00:13:26;9.27;;;6.00;;
24090;SDS011;12272;52.426;17.100;2024-02-23T00:18:29;7.10;;;5.57;;
24090;SDS011;12272;52.426;17.100;2024-02-23T00:23:31;7.90;;;5.37;;
24090;SDS011;12272;52.426;17.100;2024-02-23T00:28:34;6.43;;;5.00;;
24090;SDS011;12272;52.426;17.100;2024-02-23T00:33:37;7.50;;;5.50;;
24090;SDS011;12272;52.426;17.100;2024-02-23T00:38:44;6.97;;;5.57;;
24090;SDS011;12272;52.426;17.100;2024-02-23T00:43:46;6.70;;;4.23;;
24090;SDS011;12272;52.426;17.100;2024-02-23T00:48:49;4.50;;;4.07;;
24090;SDS011;12272;52.426;17.100;2024-02-23T00:53:52;5.83;;;4.80;;
24090;SDS011;12272;52.426;17.100;2024-02-23T00:58:55;6.40;;;4.30;;
24090;SDS011;12272;52.426;17.100;2024-02-23T01:03:57;5.10;;;4.10;;
24090;SDS011;12272;52.426;17.100;2024-02-23T01:09:00;5.10;;;4.23;;
24090;SDS011;12272;52.426;17.100;2024-02-23T01:14:02;4.90;;;3.60;;
24090;SDS011;12272;52.426;17.100;2024-02-23T01:19:05;4.63;;;3.63;;
24090;SDS011;12272;52.426;17.100;2024-02-23T01:24:07;4.77;;;3.37;;
24090;SDS011;12272;52.426;17.100;2024-02-23T01:29:10;4.40;;;3.27;;
24090;SDS011;12272;52.426;17.100;2024-02-23T01:34:12;3.40;;;2.63;;
24090;SDS011;12272;52.426;17.100;2024-02-23T01:39:15;3.23;;;2.80;;
24090;SDS011;12272;52.426;17.100;2024-02-23T01:44:18;3.30;;;2.80;;
24090;SDS011;12272;52.426;17.100;2024-02-23T01:49:22;3.93;;;2.73;;
24090;SDS011;12272;52.426;17.100;2024-02-23T01:54:31;4.03;;;2.77;;
24090;SDS011;12272;52.426;17.100;2024-02-23T01:59:35;4.03;;;2.93;;
24090;SDS011;12272;52.426;17.100;2024-02-23T02:04:41;5.63;;;3.00;;
24090;SDS011;12272;52.426;17.100;2024-02-23T02:09:43;3.33;;;2.90;;
24090;SDS011;12272;52.426;17.100;2024-02-23T02:14:45;4.10;;;3.00;;
24090;SDS011;12272;52.426;17.100;2024-02-23T02:19:48;3.00;;;2.70;;
24090;SDS011;12272;52.426;17.100;2024-02-23T02:24:51;3.90;;;2.77;;
24090;SDS011;12272;52.426;17.100;2024-02-23T02:29:53;3.93;;;2.97;;
24090;SDS011;12272;52.426;17.100;2024-02-23T02:34:55;3.10;;;2.60;;
24090;SDS011;12272;52.426;17.100;2024-02-23T02:39:58;2.50;;;2.20;;
24090;SDS011;12272;52.426;17.100;2024-02-23T02:45:01;2.53;;;2.03;;
24090;SDS011;12272;52.426;17.100;2024-02-23T02:50:05;1.80;;;1.70;;
24090;SDS011;12272;52.426;17.100;2024-02-23T02:55:08;3.97;;;2.30;;
24090;SDS011;12272;52.426;17.100;2024-02-23T03:00:11;1.97;;;1.70;;
24090;SDS011;12272;52.426;17.100;2024-02-23T03:05:14;3.67;;;2.43;;
24090;SDS011;12272;52.426;17.100;2024-02-23T03:10:17;2.93;;;2.13;;
24090;SDS011;12272;52.426;17.100;2024-02-23T03:15:19;2.50;;;2.30;;
24090;SDS011;12272;52.426;17.100;2024-02-23T03:20:22;3.03;;;2.17;;
24090;SDS011;12272;52.426;17.100;2024-02-23T03:25:24;1.57;;;1.43;;
24090;SDS011;12272;52.426;17.100;2024-02-23T03:30:26;1.60;;;1.50;;
24090;SDS011;12272;52.426;17.100;2024-02-23T03:35:29;1.73;;;1.57;;
24090;SDS011;12272;52.426;17.100;2024-02-23T03:40:31;1.77;;;1.40;;
24090;SDS011;12272;52.426;17.100;2024-02-23T03:45:34;2.17;;;1.47;;
24090;SDS011;12272;52.426;17.100;2024-02-23T03:50:37;4.53;;;1.63;;
24090;SDS011;12272;52.426;17.100;2024-02-23T03:55:39;1.90;;;1.30;;
24090;SDS011;12272;52.426;17.100;2024-02-23T04:00:43;2.10;;;1.30;;
24090;SDS011;12272;52.426;17.100;2024-02-23T04:05:45;3.43;;;1.57;;
24090;SDS011;12272;52.426;17.100;2024-02-23T04:10:48;1.97;;;1.30;;
24090;SDS011;12272;52.426;17.100;2024-02-23T04:15:50;1.50;;;1.10;;
24090;SDS011;12272;52.426;17.100;2024-02-23T04:20:53;1.90;;;1.20;;
24090;SDS011;12272;52.426;17.100;2024-02-23T04:25:55;1.90;;;0.93;;
24090;SDS011;12272;52.426;17.100;2024-02-23T04:30:58;2.90;;;1.30;;
24090;SDS011;12272;52.426;17.100;2024-02-23T04:36:01;2.30;;;1.50;;
24090;SDS011;12272;52.426;17.100;2024-02-23T04:41:05;7.43;;;3.83;;
24090;SDS011;12272;52.426;17.100;2024-02-23T04:46:07;5.80;;;3.67;;
24090;SDS011;12272;52.426;17.100;2024-02-23T04:51:10;2.83;;;1.40;;
24090;SDS011;12272;52.426;17.100;2024-02-23T04:56:12;3.27;;;1.70;;
24090;SDS011;12272;52.426;17.100;2024-02-23T05:01:15;1.80;;;1.53;;
24090;SDS011;12272;52.426;17.100;2024-02-23T05:06:17;2.17;;;1.87;;
24090;SDS011;12272;52.426;17.100;2024-02-23T05:11:20;2.97;;;1.83;;
24090;SDS011;12272;52.426;17.100;2024-02-23T05:16:22;3.23;;;1.90;;
24090;SDS011;12272;52.426;17.100;2024-02-23T05:21:25;2.70;;;2.33;;
24090;SDS011;12272;52.426;17.100;2024-02-23T05:26:28;4.40;;;1.70;;
24090;SDS011;12272;52.426;17.100;2024-02-23T05:31:44;2.03;;;1.83;;
24090;SDS011;12272;52.426;17.100;2024-02-23T05:36:49;3.63;;;1.57;;
24090;SDS011;12272;52.426;17.100;2024-02-23T05:41:53;2.10;;;1.70;;
24090;SDS011;12272;52.426;17.100;2024-02-23T05:46:55;2.00;;;1.43;;
24090;SDS011;12272;52.426;17.100;2024-02-23T05:51:58;2.47;;;1.87;;
24090;SDS011;12272;52.426;17.100;2024-02-23T05:57:00;3.90;;;2.70;;
24090;SDS011;12272;52.426;17.100;2024-02-23T06:02:03;4.67;;;3.07;;
24090;SDS011;12272;52.426;17.100;2024-02-23T06:07:05;2.77;;;1.90;;
24090;SDS011;12272;52.426;17.100;2024-02-23T06:12:08;1.20;;;0.90;;
24090;SDS011;12272;52.426;17.100;2024-02-23T06:17:11;1.50;;;1.10;;
24090;SDS011;12272;52.426;17.100;2024-02-23T06:22:14;2.10;;;1.80;;
24090;SDS011;12272;52.426;17.100;2024-02-23T06:27:18;4.10;;;1.77;;
24090;SDS011;12272;52.426;17.100;2024-02-23T06:32:21;1.87;;;1.47;;
24090;SDS011;12272;52.426;17.100;2024-02-23T06:37:23;2.97;;;2.37;;
24090;SDS011;12272;52.426;17.100;2024-02-23T06:42:26;3.90;;;2.57;;
24090;SDS011;12272;52.426;17.100;2024-02-23T06:47:29;5.63;;;3.37;;
24090;SDS011;12272;52.426;17.100;2024-02-23T06:52:31;1.80;;;1.63;;
24090;SDS011;12272;52.426;17.100;2024-02-23T06:57:35;3.83;;;2.40;;
24090;SDS011;12272;52.426;17.100;2024-02-23T07:02:38;2.00;;;1.40;;
24090;SDS011;12272;52.426;17.100;2024-02-23T07:07:41;7.37;;;1.03;;
24090;SDS011;12272;52.426;17.100;2024-02-23T07:12:43;1.70;;;1.23;;
24090;SDS011;12272;52.426;17.100;2024-02-23T07:17:46;1.60;;;1.07;;
24090;SDS011;12272;52.426;17.100;2024-02-23T07:22:49;1.10;;;0.70;;
24090;SDS011;12272;52.426;17.100;2024-02-23T07:27:52;1.27;;;1.00;;
24090;SDS011;12272;52.426;17.100;2024-02-23T07:32:55;1.13;;;1.03;;
24090;SDS011;12272;52.426;17.100;2024-02-23T07:37:58;2.07;;;0.93;;
24090;SDS011;12272;52.426;17.100;2024-02-23T07:43:01;1.83;;;1.63;;
24090;SDS011;12272;52.426;17.100;2024-02-23T07:48:04;1.37;;;0.90;;
24090;SDS011;12272;52.426;17.100;2024-02-23T07:53:07;1.13;;;0.97;;
24090;SDS011;12272;52.426;17.100;2024-02-23T07:58:09;2.10;;;0.97;;
24090;SDS011;12272;52.426;17.100;2024-02-23T08:03:12;2.20;;;1.17;;
24090;SDS011;12272;52.426;17.100;2024-02-23T08:08:15;1.70;;;0.93;;
24090;SDS011;12272;52.426;17.100;2024-02-23T08:13:17;1.57;;;0.97;;
24090;SDS011;12272;52.426;17.100;2024-02-23T08:18:20;1.13;;;0.80;;
24090;SDS011;12272;52.426;17.100;2024-02-23T08:23:27;3.50;;;1.50;;
24090;SDS011;12272;52.426;17.100;2024-02-23T08:28:29;7.07;;;1.70;;
24090;SDS011;12272;52.426;17.100;2024-02-23T08:33:32;1.40;;;1.03;;
24090;SDS011;12272;52.426;17.100;2024-02-23T08:38:34;1.37;;;1.27;;
24090;SDS011;12272;52.426;17.100;2024-02-23T08:43:37;1.53;;;1.20;;
24090;SDS011;12272;52.426;17.100;2024-02-23T08:48:39;1.57;;;1.00;;
24090;SDS011;12272;52.426;17.100;2024-02-23T08:53:42;1.70;;;1.20;;
24090;SDS011;12272;52.426;17.100;2024-02-23T08:58:45;1.00;;;0.90;;
24090;SDS011;12272;52.426;17.100;2024-02-23T09:03:47;1.10;;;0.83;;
24090;SDS011;12272;52.426;17.100;2024-02-23T09:08:50;0.57;;;0.40;;
24090;SDS011;12272;52.426;17.100;2024-02-23T09:13:53;2.40;;;0.67;;
24090;SDS011;12272;52.426;17.100;2024-02-23T09:18:56;0.83;;;0.60;;
24090;SDS011;12272;52.426;17.100;2024-02-23T09:23:58;1.40;;;0.83;;
24090;SDS011;12272;52.426;17.100;2024-02-23T09:29:01;1.50;;;0.90;;
24090;SDS011;12272;52.426;17.100;2024-02-23T09:34:04;0.67;;;0.67;;
24090;SDS011;12272;52.426;17.100;2024-02-23T09:39:06;2.07;;;0.90;;
24090;SDS011;12272;52.426;17.100;2024-02-23T09:44:09;1.93;;;1.00;;
24090;SDS011;12272;52.426;17.100;2024-02-23T09:49:12;1.73;;;1.00;;
24090;SDS011;12272;52.426;17.100;2024-02-23T09:54:17;1.27;;;0.67;;
24090;SDS011;12272;52.426;17.100;2024-02-23T09:59:21;0.93;;;0.80;;
24090;SDS011;12272;52.426;17.100;2024-02-23T10:04:23;4.77;;;0.80;;
24090;SDS011;12272;52.426;17.100;2024-02-23T10:09:29;2.97;;;1.20;;
24090;SDS011;12272;52.426;17.100;2024-02-23T10:14:31;1.70;;;0.73;;
24090;SDS011;12272;52.426;17.100;2024-02-23T10:19:34;0.97;;;0.70;;
24090;SDS011;12272;52.426;17.100;2024-02-23T10:24:36;1.27;;;0.97;;
24090;SDS011;12272;52.426;17.100;2024-02-23T10:29:39;1.30;;;1.00;;
24090;SDS011;12272;52.426;17.100;2024-02-23T10:34:42;1.30;;;0.80;;
24090;SDS011;12272;52.426;17.100;2024-02-23T10:39:46;1.63;;;0.97;;
24090;SDS011;12272;52.426;17.100;2024-02-23T10:44:50;2.40;;;0.80;;
24090;SDS011;12272;52.426;17.100;2024-02-23T10:49:54;1.33;;;0.83;;
24090;SDS011;12272;52.426;17.100;2024-02-23T10:54:58;1.53;;;0.90;;
24090;SDS011;12272;52.426;17.100;2024-02-23T11:00:07;1.40;;;0.90;;
24090;SDS011;12272;52.426;17.100;2024-02-23T11:05:14;1.77;;;1.00;;
24090;SDS011;12272;52.426;17.100;2024-02-23T11:10:18;1.73;;;1.00;;
24090;SDS011;12272;52.426;17.100;2024-02-23T11:15:28;4.30;;;1.23;;
24090;SDS011;12272;52.426;17.100;2024-02-23T11:20:34;1.47;;;1.10;;
24090;SDS011;12272;52.426;17.100;2024-02-23T11:25:39;1.60;;;1.37;;
24090;SDS011;12272;52.426;17.100;2024-02-23T11:30:43;0.87;;;0.60;;
24090;SDS011;12272;52.426;17.100;2024-02-23T11:35:47;3.83;;;0.67;;
24090;SDS011;12272;52.426;17.100;2024-02-23T11:40:51;1.33;;;0.90;;
24090;SDS011;12272;52.426;17.100;2024-02-23T11:45:54;1.50;;;0.70;;
24090;SDS011;12272;52.426;17.100;2024-02-23T11:50:57;0.87;;;0.60;;
24090;SDS011;12272;52.426;17.100;2024-02-23T11:56:00;0.50;;;0.50;;
24090;SDS011;12272;52.426;17.100;2024-02-23T12:01:02;1.17;;;1.03;;
24090;SDS011;12272;52.426;17.100;2024-02-23T12:06:06;1.30;;;0.73;;
24090;SDS011;12272;52.426;17.100;2024-02-23T12:11:09;2.40;;;0.83;;
24090;SDS011;12272;52.426;17.100;2024-02-23T12:16:14;2.27;;;0.70;;
24090;SDS011;12272;52.426;17.100;2024-02-23T12:21:17;1.93;;;0.93;;
24090;SDS011;12272;52.426;17.100;2024-02-23T12:26:20;1.57;;;1.17;;
24090;SDS011;12272;52.426;17.100;2024-02-23T12:31:24;0.87;;;0.70;;
24090;SDS011;12272;52.426;17.100;2024-02-23T12:36:28;6.90;;;1.70;;
24090;SDS011;12272;52.426;17.100;2024-02-23T12:41:32;1.00;;;0.60;;
24090;SDS011;12272;52.426;17.100;2024-02-23T12:46:35;1.13;;;0.87;;
24090;SDS011;12272;52.426;17.100;2024-02-23T12:51:38;2.83;;;0.87;;
24090;SDS011;12272;52.426;17.100;2024-02-23T12:56:40;1.63;;;0.93;;
24090;SDS011;12272;52.426;17.100;2024-02-23T13:01:42;1.03;;;0.67;;
24090;SDS011;12272;52.426;17.100;2024-02-23T13:06:48;1.63;;;1.20;;
24090;SDS011;12272;52.426;17.100;2024-02-23T13:11:50;1.80;;;0.90;;
24090;SDS011;12272;52.426;17.100;2024-02-23T13:16:53;1.00;;;0.83;;
24090;SDS011;12272;52.426;17.100;2024-02-23T13:21:56;0.77;;;0.60;;
24090;SDS011;12272;52.426;17.100;2024-02-23T13:26:58;1.50;;;1.00;;
24090;SDS011;12272;52.426;17.100;2024-02-23T13:32:01;1.70;;;0.67;;
24090;SDS011;12272;52.426;17.100;2024-02-23T13:37:04;4.10;;;1.07;;
24090;SDS011;12272;52.426;17.100;2024-02-23T13:42:06;1.80;;;1.10;;
24090;SDS011;12272;52.426;17.100;2024-02-23T13:47:11;1.77;;;0.93;;
24090;SDS011;12272;52.426;17.100;2024-02-23T13:52:14;3.63;;;1.33;;
24090;SDS011;12272;52.426;17.100;2024-02-23T13:57:17;6.47;;;1.93;;
24090;SDS011;12272;52.426;17.100;2024-02-23T14:02:25;3.33;;;2.10;;
24090;SDS011;12272;52.426;17.100;2024-02-23T14:07:29;3.40;;;1.47;;
24090;SDS011;12272;52.426;17.100;2024-02-23T14:12:31;4.13;;;1.47;;
24090;SDS011;12272;52.426;17.100;2024-02-23T14:17:34;2.20;;;1.00;;
24090;SDS011;12272;52.426;17.100;2024-02-23T14:22:37;1.37;;;0.80;;
24090;SDS011;12272;52.426;17.100;2024-02-23T14:27:39;2.10;;;1.07;;
24090;SDS011;12272;52.426;17.100;2024-02-23T14:32:42;4.20;;;1.10;;
24090;SDS011;12272;52.426;17.100;2024-02-23T14:37:45;6.33;;;1.37;;
24090;SDS011;12272;52.426;17.100;2024-02-23T14:42:47;4.73;;;2.90;;
24090;SDS011;12272;52.426;17.100;2024-02-23T14:47:50;7.73;;;1.77;;
24090;SDS011;12272;52.426;17.100;2024-02-23T14:52:52;4.73;;;1.67;;
24090;SDS011;12272;52.426;17.100;2024-02-23T14:57:56;5.07;;;2.07;;
24090;SDS011;12272;52.426;17.100;2024-02-23T15:03:00;4.63;;;2.20;;
24090;SDS011;12272;52.426;17.100;2024-02-23T15:08:03;9.10;;;2.73;;
24090;SDS011;12272;52.426;17.100;2024-02-23T15:13:06;5.87;;;2.10;;
24090;SDS011;12272;52.426;17.100;2024-02-23T15:18:08;4.70;;;2.40;;
24090;SDS011;12272;52.426;17.100;2024-02-23T15:23:11;4.23;;;1.90;;
24090;SDS011;12272;52.426;17.100;2024-02-23T15:28:14;4.17;;;2.17;;
24090;SDS011;12272;52.426;17.100;2024-02-23T15:33:24;4.07;;;1.93;;
24090;SDS011;12272;52.426;17.100;2024-02-23T15:38:27;5.50;;;2.13;;
24090;SDS011;12272;52.426;17.100;2024-02-23T15:43:30;5.97;;;3.83;;
24090;SDS011;12272;52.426;17.100;2024-02-23T15:48:32;8.83;;;4.83;;
24090;SDS011;12272;52.426;17.100;2024-02-23T15:53:36;7.10;;;4.23;;
24090;SDS011;12272;52.426;17.100;2024-02-23T15:58:38;8.60;;;4.60;;
24090;SDS011;12272;52.426;17.100;2024-02-23T16:03:41;7.30;;;4.13;;
24090;SDS011;12272;52.426;17.100;2024-02-23T16:08:44;9.33;;;3.87;;
24090;SDS011;12272;52.426;17.100;2024-02-23T16:13:48;10.67;;;4.23;;
24090;SDS011;12272;52.426;17.100;2024-02-23T16:18:51;6.53;;;3.37;;
24090;SDS011;12272;52.426;17.100;2024-02-23T16:23:53;9.27;;;3.67;;
24090;SDS011;12272;52.426;17.100;2024-02-23T16:28:56;7.27;;;3.40;;
24090;SDS011;12272;52.426;17.100;2024-02-23T16:34:00;7.40;;;3.73;;
24090;SDS011;12272;52.426;17.100;2024-02-23T16:39:03;10.77;;;6.63;;
24090;SDS011;12272;52.426;17.100;2024-02-23T16:44:09;16.07;;;9.90;;
24090;SDS011;12272;52.426;17.100;2024-02-23T16:49:13;22.23;;;12.50;;
24090;SDS011;12272;52.426;17.100;2024-02-23T16:54:15;17.77;;;9.50;;
24090;SDS011;12272;52.426;17.100;2024-02-23T16:59:18;11.07;;;7.67;;
24090;SDS011;12272;52.426;17.100;2024-02-23T17:04:21;19.77;;;7.87;;
24090;SDS011;12272;52.426;17.100;2024-02-23T17:09:23;15.23;;;7.40;;
24090;SDS011;12272;52.426;17.100;2024-02-23T17:14:26;8.87;;;4.63;;
24090;SDS011;12272;52.426;17.100;2024-02-23T17:19:30;23.57;;;13.90;;
24090;SDS011;12272;52.426;17.100;2024-02-23T17:24:32;24.27;;;13.00;;
24090;SDS011;12272;52.426;17.100;2024-02-23T17:29:35;33.13;;;16.00;;
24090;SDS011;12272;52.426;17.100;2024-02-23T17:34:37;28.60;;;15.00;;
24090;SDS011;12272;52.426;17.100;2024-02-23T17:39:40;36.40;;;17.80;;
24090;SDS011;12272;52.426;17.100;2024-02-23T17:44:42;28.83;;;16.00;;
24090;SDS011;12272;52.426;17.100;2024-02-23T17:49:45;26.00;;;15.23;;
24090;SDS011;12272;52.426;17.100;2024-02-23T17:54:49;27.60;;;14.33;;
24090;SDS011;12272;52.426;17.100;2024-02-23T17:59:52;23.73;;;12.60;;
24090;SDS011;12272;52.426;17.100;2024-02-23T18:04:55;24.53;;;13.33;;
24090;SDS011;12272;52.426;17.100;2024-02-23T18:09:57;21.93;;;11.27;;
24090;SDS011;12272;52.426;17.100;2024-02-23T18:15:00;21.87;;;11.07;;
24090;SDS011;12272;52.426;17.100;2024-02-23T18:20:04;27.63;;;15.43;;
24090;SDS011;12272;52.426;17.100;2024-02-23T18:25:07;30.03;;;16.00;;
24090;SDS011;12272;52.426;17.100;2024-02-23T18:30:10;26.73;;;15.67;;
24090;SDS011;12272;52.426;17.100;2024-02-23T18:35:13;27.17;;;16.17;;
24090;SDS011;12272;52.426;17.100;2024-02-23T18:40:16;27.93;;;16.50;;
24090;SDS011;12272;52.426;17.100;2024-02-23T18:45:18;25.87;;;15.27;;
24090;SDS011;12272;52.426;17.100;2024-02-23T18:50:22;23.63;;;15.67;;
24090;SDS011;12272;52.426;17.100;2024-02-23T18:55:25;25.50;;;13.53;;
24090;SDS011;12272;52.426;17.100;2024-02-23T19:00:30;19.53;;;9.93;;
24090;SDS011;12272;52.426;17.100;2024-02-23T19:05:33;14.27;;;8.73;;
24090;SDS011;12272;52.426;17.100;2024-02-23T19:10:35;22.63;;;13.13;;
24090;SDS011;12272;52.426;17.100;2024-02-23T19:15:38;23.40;;;12.67;;
24090;SDS011;12272;52.426;17.100;2024-02-23T19:20:42;20.40;;;12.47;;
24090;SDS011;12272;52.426;17.100;2024-02-23T19:25:45;18.80;;;9.67;;
24090;SDS011;12272;52.426;17.100;2024-02-23T19:30:47;16.50;;;10.13;;
24090;SDS011;12272;52.426;17.100;2024-02-23T19:35:50;15.03;;;8.93;;
24090;SDS011;12272;52.426;17.100;2024-02-23T19:40:53;11.90;;;6.67;;
24090;SDS011;12272;52.426;17.100;2024-02-23T19:45:55;15.83;;;8.50;;
24090;SDS011;12272;52.426;17.100;2024-02-23T19:51:12;14.63;;;8.63;;
24090;SDS011;12272;52.426;17.100;2024-02-23T19:56:16;17.70;;;9.60;;
24090;SDS011;12272;52.426;17.100;2024-02-23T20:01:18;23.93;;;13.37;;
24090;SDS011;12272;52.426;17.100;2024-02-23T20:06:22;20.53;;;13.37;;
24090;SDS011;12272;52.426;17.100;2024-02-23T20:11:25;28.40;;;18.13;;
24090;SDS011;12272;52.426;17.100;2024-02-23T20:16:27;33.37;;;21.00;;
24090;SDS011;12272;52.426;17.100;2024-02-23T20:21:30;29.90;;;17.03;;
24090;SDS011;12272;52.426;17.100;2024-02-23T20:26:33;19.13;;;12.43;;
24090;SDS011;12272;52.426;17.100;2024-02-23T20:31:36;27.70;;;17.80;;
24090;SDS011;12272;52.426;17.100;2024-02-23T20:36:40;18.53;;;11.13;;
24090;SDS011;12272;52.426;17.100;2024-02-23T20:41:42;9.57;;;7.50;;
24090;SDS011;12272;52.426;17.100;2024-02-23T20:46:49;5.27;;;4.13;;
24090;SDS011;12272;52.426;17.100;2024-02-23T20:51:52;8.53;;;4.33;;
24090;SDS011;12272;52.426;17.100;2024-02-23T20:56:58;4.43;;;2.80;;
24090;SDS011;12272;52.426;17.100;2024-02-23T21:02:00;5.70;;;3.50;;
24090;SDS011;12272;52.426;17.100;2024-02-23T21:07:03;8.63;;;5.13;;
24090;SDS011;12272;52.426;17.100;2024-02-23T21:12:06;6.00;;;4.07;;
24090;SDS011;12272;52.426;17.100;2024-02-23T21:17:09;8.27;;;3.50;;
24090;SDS011;12272;52.426;17.100;2024-02-23T21:22:12;4.10;;;2.70;;
24090;SDS011;12272;52.426;17.100;2024-02-23T21:27:14;4.03;;;1.93;;
24090;SDS011;12272;52.426;17.100;2024-02-23T21:32:17;3.33;;;2.10;;
24090;SDS011;12272;52.426;17.100;2024-02-23T21:37:20;4.30;;;1.93;;
24090;SDS011;12272;52.426;17.100;2024-02-23T21:42:23;2.77;;;1.90;;
24090;SDS011;12272;52.426;17.100;2024-02-23T21:47:25;5.50;;;2.70;;
24090;SDS011;12272;52.426;17.100;2024-02-23T21:52:28;5.23;;;2.17;;
24090;SDS011;12272;52.426;17.100;2024-02-23T21:57:32;2.60;;;1.50;;
24090;SDS011;12272;52.426;17.100;2024-02-23T22:02:34;9.47;;;6.10;;
24090;SDS011;12272;52.426;17.100;2024-02-23T22:07:37;3.47;;;1.63;;
24090;SDS011;12272;52.426;17.100;2024-02-23T22:12:39;14.87;;;4.97;;
24090;SDS011;12272;52.426;17.100;2024-02-23T22:17:44;3.50;;;1.63;;
24090;SDS011;12272;52.426;17.100;2024-02-23T22:22:47;3.93;;;1.80;;
24090;SDS011;12272;52.426;17.100;2024-02-23T22:27:50;15.40;;;5.60;;
24090;SDS011;12272;52.426;17.100;2024-02-23T22:32:52;7.90;;;2.33;;
24090;SDS011;12272;52.426;17.100;2024-02-23T22:37:55;2.47;;;1.20;;
24090;SDS011;12272;52.426;17.100;2024-02-23T22:42:59;2.00;;;1.20;;
24090;SDS011;12272;52.426;17.100;2024-02-23T22:48:02;3.40;;;1.00;;
24090;SDS011;12272;52.426;17.100;2024-02-23T22:53:05;1.50;;;0.93;;
24090;SDS011;12272;52.426;17.100;2024-02-23T22:58:09;3.57;;;1.30;;
24090;SDS011;12272;52.426;17.100;2024-02-23T23:03:11;2.53;;;1.13;;
24090;SDS011;12272;52.426;17.100;2024-02-23T23:08:14;1.73;;;1.20;;
24090;SDS011;12272;52.426;17.100;2024-02-23T23:13:17;1.30;;;0.63;;
24090;SDS011;12272;52.426;17.100;2024-02-23T23:18:20;1.20;;;0.63;;
24090;SDS011;12272;52.426;17.100;2024-02-23T23:23:22;1.33;;;0.90;;
24090;SDS011;12272;52.426;17.100;2024-02-23T23:28:25;1.27;;;0.90;;
24090;SDS011;12272;52.426;17.100;2024-02-23T23:33:28;1.13;;;0.83;;
24090;SDS011;12272;52.426;17.100;2024-02-23T23:38:31;0.60;;;0.47;;
24090;SDS011;12272;52.426;17.100;2024-02-23T23:43:34;0.60;;;0.40;;
24090;SDS011;12272;52.426;17.100;2024-02-23T23:48:37;0.50;;;0.50;;
24090;SDS011;12272;52.426;17.100;2024-02-23T23:53:39;1.07;;;0.50;;
24090;SDS011;12272;52.426;17.100;2024-02-23T23:58:41;2.23;;;1.40;;
